createdAt,value
2017-07-28T08:02:10.791Z,15.70
2017-07-28T08:04:38.547Z,15.46
2017-07-28T08:07:06.284Z,15.66
2017-07-28T08:09:34.049Z,15.49
2017-07-28T08:12:01.745Z,15.43
2017-07-28T08:14:29.452Z,15.37
2017-07-28T08:16:57.144Z,15.27
2017-07-28T08:19:24.929Z,15.30
2017-07-28T08:21:52.623Z,15.33
2017-07-28T08:24:20.367Z,15.50
2017-07-28T08:26:48.071Z,15.44
2017-07-28T08:29:15.808Z,15.20
2017-07-28T08:31:43.513Z,15.46
2017-07-28T08:34:11.241Z,15.44
2017-07-28T08:36:38.992Z,15.37
2017-07-28T08:39:06.696Z,15.21
2017-07-28T08:41:34.403Z,15.34
2017-07-28T08:44:03.355Z,15.36
2017-07-28T08:46:33.245Z,15.41
2017-07-28T08:49:00.993Z,15.49
2017-07-28T08:51:28.692Z,15.33
2017-07-28T08:53:56.388Z,15.37
2017-07-28T08:56:24.123Z,15.28
2017-07-28T08:58:51.865Z,15.45
2017-07-28T09:01:19.555Z,15.51
2017-07-28T09:03:47.247Z,15.72
2017-07-28T09:06:14.944Z,16.14
2017-07-28T09:08:42.680Z,16.07
2017-07-28T09:11:10.380Z,16.28
2017-07-28T09:13:38.124Z,16.31
2017-07-28T09:16:05.835Z,16.35
2017-07-28T09:18:33.573Z,16.37
2017-07-28T09:21:01.264Z,16.29
2017-07-28T09:23:29.213Z,16.22
2017-07-28T09:25:57.005Z,16.19
2017-07-28T09:28:24.699Z,16.30
2017-07-28T09:30:52.395Z,16.53
2017-07-28T09:33:20.125Z,16.69
2017-07-28T09:35:47.856Z,16.76
2017-07-28T09:38:15.559Z,16.71
2017-07-28T09:40:43.260Z,16.70
2017-07-28T09:43:10.980Z,16.58
2017-07-28T09:45:38.736Z,16.78
2017-07-28T09:48:07.192Z,16.79
2017-07-28T09:50:34.923Z,16.83
2017-07-28T09:53:02.722Z,17.14
2017-07-28T09:55:30.419Z,16.88
2017-07-28T09:57:58.121Z,17.20
2017-07-28T10:00:25.828Z,17.36
2017-07-28T10:02:53.528Z,17.48
2017-07-28T10:05:21.362Z,17.20
2017-07-28T10:07:49.055Z,17.22
2017-07-28T10:10:16.796Z,17.15
2017-07-28T10:12:44.508Z,17.24
2017-07-28T10:15:12.218Z,17.22
2017-07-28T10:17:39.920Z,17.12
2017-07-28T10:20:07.667Z,17.31
2017-07-28T10:22:35.411Z,17.33
2017-07-28T10:25:03.116Z,17.38
2017-07-28T10:27:30.811Z,17.54
2017-07-28T10:29:58.503Z,17.49
2017-07-28T10:32:26.247Z,17.58
2017-07-28T10:34:53.943Z,17.71
2017-07-28T10:37:21.653Z,17.62
2017-07-28T10:39:49.491Z,17.57
2017-07-28T10:42:17.188Z,17.51
2017-07-28T10:44:44.893Z,17.63
2017-07-28T10:47:12.613Z,17.77
2017-07-28T10:49:40.339Z,17.76
2017-07-28T10:52:08.704Z,17.85
2017-07-28T10:54:36.465Z,17.89
2017-07-28T10:57:05.736Z,17.96
2017-07-28T10:59:33.441Z,17.89
2017-07-28T11:02:01.183Z,18.17
2017-07-28T11:04:28.945Z,18.13
2017-07-28T11:06:56.694Z,17.93
2017-07-28T11:09:24.451Z,18.03
2017-07-28T11:11:52.152Z,18.08
2017-07-28T11:14:19.879Z,18.09
2017-07-28T11:16:47.609Z,18.07
2017-07-28T11:19:15.347Z,18.22
2017-07-28T11:21:43.049Z,18.16
2017-07-28T11:24:10.859Z,18.18
2017-07-28T11:26:38.611Z,18.08
2017-07-28T11:29:06.312Z,18.33
2017-07-28T11:31:34.158Z,18.31
2017-07-28T11:34:02.109Z,18.07
2017-07-28T11:36:29.816Z,18.06
2017-07-28T11:38:57.511Z,18.31
2017-07-28T11:41:25.231Z,18.14
2017-07-28T11:43:53.080Z,18.15
2017-07-28T11:46:23.955Z,18.03
2017-07-28T11:48:51.669Z,18.11
2017-07-28T11:51:19.363Z,18.07
2017-07-28T11:53:47.069Z,18.05
2017-07-28T11:56:14.768Z,18.20
2017-07-28T11:58:42.460Z,18.03
2017-07-28T12:01:13.447Z,18.29
2017-07-28T12:03:41.152Z,18.47
2017-07-28T12:06:09.151Z,18.68
2017-07-28T12:08:36.856Z,18.85
2017-07-28T12:11:04.551Z,18.99
2017-07-28T12:13:32.251Z,18.87
2017-07-28T12:16:00.113Z,18.60
2017-07-28T12:18:27.866Z,18.59
2017-07-28T12:20:55.583Z,18.14
2017-07-28T12:23:23.305Z,18.44
2017-07-28T12:25:51.109Z,18.34
2017-07-28T12:28:18.818Z,18.46
2017-07-28T12:30:46.556Z,18.44
2017-07-28T12:33:14.265Z,18.60
2017-07-28T12:35:42.088Z,18.71
2017-07-28T12:38:10.637Z,18.86
2017-07-28T12:40:38.385Z,18.86
2017-07-28T12:43:06.092Z,18.85
2017-07-28T12:45:33.815Z,18.77
2017-07-28T12:48:01.605Z,18.92
2017-07-28T12:50:29.342Z,18.91
2017-07-28T12:52:58.141Z,18.96
2017-07-28T12:55:25.862Z,19.13
2017-07-28T12:57:53.563Z,19.12
2017-07-28T13:00:21.269Z,19.05
2017-07-28T13:02:49.008Z,19.01
2017-07-28T13:05:16.783Z,19.17
2017-07-28T13:07:44.509Z,19.19
2017-07-28T13:10:12.293Z,19.17
2017-07-28T13:12:40.067Z,19.10
2017-07-28T13:15:07.785Z,18.94
2017-07-28T13:17:35.497Z,18.89
2017-07-28T13:20:03.211Z,19.20
2017-07-28T13:22:30.945Z,19.21
2017-07-28T13:24:58.669Z,19.15
2017-07-28T13:27:26.374Z,19.22
2017-07-28T13:29:54.164Z,19.00
2017-07-28T13:32:21.904Z,19.16
2017-07-28T13:34:49.638Z,19.10
2017-07-28T13:37:17.365Z,19.19
2017-07-28T13:39:46.708Z,18.86
2017-07-28T13:42:14.424Z,18.90
2017-07-28T13:44:42.167Z,18.95
2017-07-28T13:47:09.899Z,18.95
2017-07-28T13:49:37.606Z,18.96
2017-07-28T13:52:05.318Z,18.79
2017-07-28T13:54:33.038Z,18.59
2017-07-28T13:57:00.798Z,18.57
2017-07-28T13:59:28.505Z,18.83
2017-07-28T14:01:56.261Z,18.89
2017-07-28T14:04:23.972Z,18.83
2017-07-28T14:06:51.710Z,18.85
2017-07-28T14:09:19.440Z,19.08
2017-07-28T14:11:47.237Z,18.99
2017-07-28T14:14:14.958Z,18.99
2017-07-28T14:16:42.664Z,18.65
2017-07-28T14:19:10.420Z,18.86
2017-07-28T14:21:38.130Z,18.92
2017-07-28T14:24:07.098Z,18.96
2017-07-28T14:26:34.814Z,18.69
2017-07-28T14:29:02.516Z,18.76
2017-07-28T14:31:30.277Z,18.78
2017-07-28T14:33:58.022Z,18.75
2017-07-28T14:36:25.741Z,18.55
2017-07-28T14:38:53.846Z,18.51
2017-07-28T14:41:21.585Z,18.39
2017-07-28T14:43:49.297Z,18.24
2017-07-28T14:46:17.113Z,18.08
2017-07-28T14:48:44.809Z,18.17
2017-07-28T14:51:12.552Z,18.07
2017-07-28T14:53:40.302Z,18.02
2017-07-28T14:56:09.137Z,18.00
2017-07-28T14:58:37.103Z,17.98
2017-07-28T15:01:04.805Z,18.00
2017-07-28T15:03:32.510Z,18.26
2017-07-28T15:06:00.224Z,18.37
2017-07-28T15:08:27.946Z,18.42
2017-07-28T15:10:55.697Z,18.52
2017-07-28T15:13:23.422Z,18.67
2017-07-28T15:15:51.172Z,18.24
2017-07-28T15:18:18.913Z,18.34
2017-07-28T15:20:47.797Z,18.27
2017-07-28T15:23:15.509Z,18.31
2017-07-28T15:25:43.213Z,18.19
2017-07-28T15:28:10.957Z,18.21
2017-07-28T15:30:38.800Z,18.56
2017-07-28T15:33:06.585Z,18.64
2017-07-28T15:35:34.345Z,18.69
2017-07-28T15:38:02.049Z,18.70
2017-07-28T15:40:29.760Z,18.65
2017-07-28T15:42:57.610Z,18.65
2017-07-28T15:45:25.320Z,18.84
2017-07-28T15:47:53.058Z,18.54
2017-07-28T15:50:20.813Z,18.69
2017-07-28T15:52:48.556Z,18.66
2017-07-28T15:55:16.298Z,18.44
2017-07-28T15:57:44.008Z,18.44
2017-07-28T16:00:11.884Z,18.27
2017-07-28T16:02:39.608Z,18.35
2017-07-28T16:05:07.357Z,18.15
2017-07-28T16:07:35.113Z,18.03
2017-07-28T16:10:02.818Z,17.79
2017-07-28T16:12:31.910Z,18.01
2017-07-28T16:14:59.608Z,18.28
2017-07-28T16:17:27.508Z,18.48
2017-07-28T16:19:55.210Z,18.62
2017-07-28T16:22:22.923Z,18.63
2017-07-28T16:24:50.634Z,18.50
2017-07-28T16:27:18.410Z,18.68
2017-07-28T16:29:46.158Z,18.70
2017-07-28T16:32:13.901Z,18.66
2017-07-28T16:34:41.641Z,18.56
2017-07-28T16:37:09.370Z,18.34
2017-07-28T16:39:37.069Z,18.39
2017-07-28T16:42:04.784Z,18.28
2017-07-28T16:44:32.535Z,18.31
2017-07-28T16:47:00.236Z,18.25
2017-07-28T16:49:27.993Z,18.29
2017-07-28T16:51:55.734Z,18.25
2017-07-28T16:54:23.434Z,18.15
2017-07-28T16:56:51.180Z,18.22
2017-07-28T16:59:18.912Z,18.28
2017-07-28T17:01:46.660Z,18.11
2017-07-28T17:04:14.411Z,18.07
2017-07-28T17:06:42.157Z,18.19
2017-07-28T17:09:09.863Z,18.21
2017-07-28T17:11:37.613Z,18.21
2017-07-28T17:14:05.360Z,18.24
2017-07-28T17:16:33.061Z,18.16
2017-07-28T17:19:00.813Z,18.17
2017-07-28T17:21:28.570Z,18.16
2017-07-28T17:23:56.835Z,18.13
2017-07-28T17:26:24.608Z,18.13
2017-07-28T17:28:52.328Z,18.11
2017-07-28T17:31:20.032Z,18.17
2017-07-28T17:33:47.733Z,18.22
2017-07-28T17:36:15.455Z,18.23
2017-07-28T17:38:43.202Z,18.23
2017-07-28T17:41:10.932Z,18.24
2017-07-28T17:43:38.789Z,18.13
2017-07-28T17:46:06.490Z,18.01
2017-07-28T17:48:34.192Z,17.93
2017-07-28T17:51:01.929Z,17.64
2017-07-28T17:53:29.632Z,17.72
2017-07-28T17:55:57.336Z,17.60
2017-07-28T17:58:25.098Z,17.62
2017-07-28T18:00:53.136Z,17.65
2017-07-28T18:03:20.838Z,17.59
2017-07-28T18:05:48.586Z,17.55
2017-07-28T18:08:16.294Z,17.50
2017-07-28T18:10:44.005Z,17.47
2017-07-28T18:13:11.748Z,17.41
2017-07-28T18:15:39.450Z,17.38
2017-07-28T18:18:07.161Z,17.37
2017-07-28T18:20:34.865Z,17.30
2017-07-28T18:23:02.571Z,17.26
2017-07-28T18:25:30.284Z,17.18
2017-07-28T18:27:57.985Z,17.23
2017-07-28T18:30:25.844Z,17.20
2017-07-28T18:32:53.554Z,17.13
2017-07-28T18:35:21.267Z,17.04
2017-07-28T18:37:48.981Z,17.05
2017-07-28T18:40:18.993Z,16.98
2017-07-28T18:42:46.982Z,16.97
2017-07-28T18:45:14.717Z,17.04
2017-07-28T18:47:42.429Z,16.96
2017-07-28T18:50:10.132Z,16.90
2017-07-28T18:52:37.832Z,16.90
2017-07-28T18:55:05.657Z,16.86
2017-07-28T18:57:33.359Z,16.88
2017-07-28T19:00:01.075Z,16.80
2017-07-28T19:02:28.780Z,16.88
2017-07-28T19:04:56.529Z,16.80
2017-07-28T19:07:24.229Z,16.74
2017-07-28T19:09:51.937Z,16.71
2017-07-28T19:12:19.640Z,16.74
2017-07-28T19:14:47.391Z,16.83
2017-07-28T19:17:15.097Z,16.66
2017-07-28T19:19:42.816Z,16.65
2017-07-28T19:22:10.512Z,16.57
2017-07-28T19:24:38.267Z,16.54
2017-07-28T19:27:06.014Z,16.53
2017-07-28T19:29:33.773Z,16.50
2017-07-28T19:32:01.489Z,16.50
2017-07-28T19:34:29.192Z,16.48
2017-07-28T19:36:56.950Z,16.48
2017-07-28T19:39:24.654Z,16.39
2017-07-28T19:41:52.381Z,16.36
2017-07-28T19:44:21.256Z,16.35
2017-07-28T19:46:55.233Z,16.26
2017-07-28T19:49:22.978Z,16.26
2017-07-28T19:51:50.693Z,16.22
2017-07-28T19:54:18.501Z,16.22
2017-07-28T19:56:46.305Z,16.19
2017-07-28T19:59:14.053Z,16.18
2017-07-28T20:01:41.821Z,16.12
2017-07-28T20:04:09.531Z,16.20
2017-07-28T20:06:37.242Z,16.16
2017-07-28T20:09:04.961Z,16.11
2017-07-28T20:11:32.689Z,16.20
2017-07-28T20:14:00.442Z,16.15
2017-07-28T20:19:21.765Z,16.11
2017-07-28T20:21:49.515Z,16.22
2017-07-28T20:24:17.236Z,16.15
2017-07-28T20:26:44.995Z,16.10
2017-07-28T20:29:12.748Z,16.13
2017-07-28T20:31:40.668Z,16.11
2017-07-28T20:34:08.399Z,16.09
2017-07-28T20:36:36.181Z,16.05
2017-07-28T20:39:03.905Z,16.02
2017-07-28T20:41:31.625Z,16.01
2017-07-28T20:43:59.359Z,16.01
2017-07-28T20:46:27.104Z,15.95
2017-07-28T20:48:54.808Z,15.92
2017-07-28T20:51:22.679Z,15.90
2017-07-28T20:53:50.437Z,15.88
2017-07-28T20:56:18.144Z,15.98
2017-07-28T20:58:45.857Z,15.95
2017-07-28T21:01:13.594Z,15.93
2017-07-28T21:03:41.437Z,16.02
2017-07-28T21:06:09.206Z,16.03
2017-07-28T21:08:37.014Z,15.98
2017-07-28T21:11:04.725Z,16.01
2017-07-28T21:13:38.692Z,16.09
2017-07-28T21:16:06.500Z,16.10
2017-07-28T21:18:34.858Z,16.05
2017-07-28T21:21:02.580Z,15.99
2017-07-28T21:23:30.468Z,15.93
2017-07-28T21:25:58.230Z,15.86
2017-07-28T21:28:25.986Z,15.77
2017-07-28T21:30:53.741Z,15.76
2017-07-28T21:33:21.604Z,15.72
2017-07-28T21:35:49.416Z,15.69
2017-07-28T21:38:17.128Z,15.73
2017-07-28T21:40:44.900Z,15.64
2017-07-28T21:43:13.034Z,15.75
2017-07-28T21:45:40.859Z,15.66
2017-07-28T21:48:08.601Z,15.57
2017-07-28T21:50:36.376Z,15.54
2017-07-28T21:53:04.088Z,15.54
2017-07-28T21:55:31.831Z,15.51
2017-07-28T21:57:59.594Z,15.47
2017-07-28T22:00:27.442Z,15.36
2017-07-28T22:02:55.202Z,15.35
2017-07-28T22:05:22.973Z,15.33
2017-07-28T22:07:50.728Z,15.36
2017-07-28T22:10:18.440Z,15.31
2017-07-28T22:12:46.209Z,15.24
2017-07-28T22:15:13.936Z,15.22
2017-07-28T22:17:41.656Z,15.16
2017-07-28T22:20:09.473Z,15.06
2017-07-28T22:22:37.261Z,15.09
2017-07-28T22:25:05.018Z,15.09
2017-07-28T22:27:32.732Z,15.10
2017-07-28T22:30:00.498Z,15.04
2017-07-28T22:32:28.309Z,15.03
2017-07-28T22:34:56.010Z,15.03
2017-07-28T22:37:23.766Z,15.01
2017-07-28T22:39:51.526Z,15.02
2017-07-28T22:42:19.231Z,14.93
2017-07-28T22:44:46.952Z,14.94
2017-07-28T22:47:14.656Z,14.93
2017-07-28T22:49:42.413Z,14.86
2017-07-28T22:52:10.225Z,14.94
2017-07-28T22:54:38.050Z,14.90
2017-07-28T22:57:08.734Z,14.93
2017-07-28T22:59:36.442Z,14.92
2017-07-28T23:02:04.426Z,14.77
2017-07-28T23:04:32.168Z,14.77
2017-07-28T23:06:59.925Z,14.80
2017-07-28T23:09:27.690Z,14.78
2017-07-28T23:11:55.399Z,14.74
2017-07-28T23:14:24.173Z,14.80
2017-07-28T23:16:51.877Z,14.72
2017-07-28T23:19:19.628Z,14.71
2017-07-28T23:21:47.538Z,14.67
2017-07-28T23:24:15.248Z,14.77
2017-07-28T23:26:42.977Z,14.70
2017-07-28T23:29:10.722Z,14.85
2017-07-28T23:31:38.497Z,14.80
2017-07-28T23:34:06.260Z,14.76
2017-07-28T23:36:34.017Z,14.76
2017-07-28T23:39:01.780Z,14.81
2017-07-28T23:41:29.509Z,14.67
2017-07-28T23:43:57.294Z,14.74
2017-07-28T23:46:25.009Z,14.69
2017-07-28T23:48:52.717Z,14.66
2017-07-28T23:51:20.424Z,14.61
2017-07-28T23:53:48.124Z,14.56
2017-07-28T23:56:15.872Z,14.58
2017-07-28T23:58:43.596Z,14.54
